Time;durP1;ratioP1;P1;durP2;ratioP2;P2;SDS_P1;SDS_P2;PMS_P1;PMS_P2;Temp;Humidity;BMP_temperature;BMP_pressure;BME280_temperature;BME280_humidity;BME280_pressure;Samples;Min_cycle;Max_cycle;Signal;HPM_P1;HPM_P2
2023/07/01 00:01:45;;;;;;;9.10;6.00;;;;;;;20.03;59.70;99568.36;105224;1255;64889;-56
2023/07/01 00:04:12;;;;;;;8.90;6.10;;;;;;;20.07;59.61;99567.02;108292;1253;61409;-56
2023/07/01 00:06:41;;;;;;;8.50;6.40;;;;;;;20.08;59.56;99563.97;105501;1258;63823;-57
2023/07/01 00:09:10;;;;;;;8.60;6.00;;;;;;;20.10;59.50;99565.86;105488;1253;60559;-55
2023/07/01 00:11:37;;;;;;;8.80;6.40;;;;;;;20.09;59.55;99570.05;105272;1257;60680;-54
2023/07/01 00:14:04;;;;;;;13.00;6.50;;;;;;;20.07;59.71;99571.52;105410;1254;65532;-55
2023/07/01 00:16:31;;;;;;;9.90;6.50;;;;;;;20.06;59.75;99573.01;105455;1255;61523;-55
2023/07/01 00:18:58;;;;;;;7.90;6.00;;;;;;;20.04;59.90;99575.51;105971;1254;62812;-55
2023/07/01 00:21:24;;;;;;;9.50;6.60;;;;;;;20.06;59.87;99579.10;105267;1253;60694;-55
2023/07/01 00:23:52;;;;;;;8.50;6.30;;;;;;;20.09;59.98;99582.75;105335;1253;60575;-57
2023/07/01 00:26:19;;;;;;;8.70;6.70;;;;;;;20.12;59.88;99581.05;105441;1257;65192;-56
2023/07/01 00:28:45;;;;;;;8.50;6.60;;;;;;;20.14;59.72;99586.33;105733;1258;61698;-56
2023/07/01 00:31:12;;;;;;;8.10;5.90;;;;;;;20.15;59.80;99585.83;105420;1253;73219;-56
2023/07/01 00:33:40;;;;;;;7.90;6.10;;;;;;;20.15;59.70;99588.37;105374;1253;60540;-55
2023/07/01 00:36:06;;;;;;;8.90;6.80;;;;;;;20.15;59.72;99586.92;105885;1254;60477;-55
2023/07/01 00:38:33;;;;;;;8.10;6.20;;;;;;;20.14;59.80;99586.65;105453;1258;65004;-55
2023/07/01 00:41:00;;;;;;;7.90;6.00;;;;;;;20.15;59.80;99590.19;105356;1255;61891;-54
2023/07/01 00:43:27;;;;;;;10.50;6.70;;;;;;;20.12;59.82;99590.23;105428;1256;63845;-55
2023/07/01 00:45:54;;;;;;;9.80;7.00;;;;;;;20.07;59.88;99589.45;105315;1253;60578;-60
2023/07/01 00:48:26;;;;;;;9.00;6.10;;;;;;;20.03;59.97;99588.98;105431;1257;60468;-56
2023/07/01 00:50:53;;;;;;;10.50;6.70;;;;;;;20.01;60.16;99585.85;105439;1257;63672;-56
2023/07/01 00:53:22;;;;;;;15.00;6.90;;;;;;;20.01;60.20;99582.77;105597;1255;61574;-57
2023/07/01 00:55:50;;;;;;;8.80;6.60;;;;;;;20.03;60.12;99583.95;105541;1258;63799;-55
2023/07/01 00:58:17;;;;;;;8.50;6.50;;;;;;;20.04;60.10;99583.53;105414;1259;60405;-55
2023/07/01 01:00:44;;;;;;;10.20;6.60;;;;;;;20.07;60.01;99585.54;105447;1254;60473;-57
2023/07/01 01:03:21;;;;;;;8.90;6.30;;;;;;;20.05;59.97;99584.47;106147;1253;65399;-55
2023/07/01 01:06:05;;;;;;;11.10;6.50;;;;;;;19.99;59.97;99580.27;105464;1254;61808;-56
2023/07/01 01:09:00;;;;;;;8.70;6.50;;;;;;;19.92;60.08;99577.05;105716;1254;63943;-55
2023/07/01 01:11:29;;;;;;;9.10;6.40;;;;;;;19.84;60.14;99580.46;105448;1254;60544;-56
2023/07/01 01:13:59;;;;;;;8.50;6.50;;;;;;;19.77;60.39;99573.96;106543;1253;60438;-57
2023/07/01 01:16:26;;;;;;;9.40;6.50;;;;;;;19.74;60.64;99579.11;105431;1255;63773;-57
2023/07/01 01:18:54;;;;;;;10.10;6.40;;;;;;;19.75;60.69;99580.64;106475;1253;61544;-57
2023/07/01 01:21:20;;;;;;;8.10;6.30;;;;;;;19.78;60.75;99580.98;105476;1258;63815;-55
2023/07/01 01:23:59;;;;;;;8.40;6.20;;;;;;;19.78;60.74;99584.52;105347;1253;60565;-56
2023/07/01 01:26:27;;;;;;;9.10;6.50;;;;;;;19.77;60.81;99585.54;105334;1253;60436;-56
2023/07/01 01:28:55;;;;;;;9.10;7.20;;;;;;;19.76;60.74;99584.05;105377;1257;65215;-56
2023/07/01 01:31:22;;;;;;;8.40;6.70;;;;;;;19.74;60.86;99583.38;105407;1255;61655;-56
2023/07/01 01:33:48;;;;;;;12.00;8.30;;;;;;;19.72;61.07;99581.80;105371;1254;60579;-56
2023/07/01 01:36:35;;;;;;;9.90;7.30;;;;;;;19.72;61.23;99577.87;105320;1255;60487;-56
2023/07/01 01:39:05;;;;;;;7.80;5.70;;;;;;;19.73;61.31;99577.50;105300;1253;60553;-57
2023/07/01 01:41:39;;;;;;;9.00;6.50;;;;;;;19.75;61.38;99574.80;105279;1259;65009;-56
2023/07/01 01:44:10;;;;;;;9.90;6.30;;;;;;;19.76;61.56;99576.02;105305;1253;61620;-58
2023/07/01 01:46:37;;;;;;;9.90;6.50;;;;;;;19.75;61.70;99582.04;105469;1256;63984;-55
2023/07/01 01:49:06;;;;;;;8.70;7.00;;;;;;;19.69;61.66;99583.36;105484;1259;60449;-55
2023/07/01 01:51:34;;;;;;;9.80;7.00;;;;;;;19.60;61.63;99580.96;105959;1254;60470;-55
2023/07/01 01:54:00;;;;;;;9.40;7.00;;;;;;;19.54;61.57;99578.97;105488;1256;65252;-55
2023/07/01 01:56:30;;;;;;;8.10;5.90;;;;;;;19.49;61.81;99578.13;105439;1255;61662;-56
2023/07/01 01:58:57;;;;;;;8.60;6.40;;;;;;;19.47;61.92;99574.43;105966;1256;64530;-55
2023/07/01 02:01:24;;;;;;;11.10;6.90;;;;;;;19.47;61.75;99580.84;105576;1254;60563;-56
2023/07/01 02:03:51;;;;;;;8.70;6.20;;;;;;;19.45;61.82;99580.27;105319;1253;60478;-55
2023/07/01 02:06:18;;;;;;;9.90;7.10;;;;;;;19.41;61.77;99580.91;105537;1254;64881;-55
2023/07/01 02:08:46;;;;;;;8.20;7.10;;;;;;;19.38;61.95;99580.44;105383;1256;61590;-55
2023/07/01 02:11:13;;;;;;;8.40;6.80;;;;;;;19.34;62.15;99585.22;105457;1259;63864;-58
2023/07/01 02:13:39;;;;;;;7.80;6.40;;;;;;;19.34;62.17;99589.40;105349;1256;60486;-55
2023/07/01 02:16:06;;;;;;;9.20;6.40;;;;;;;19.36;62.28;99593.56;105864;1254;60619;-56
2023/07/01 02:18:33;;;;;;;9.50;6.80;;;;;;;19.38;62.51;99599.34;105298;1259;65198;-58
2023/07/01 02:21:00;;;;;;;9.50;6.70;;;;;;;19.36;62.60;99605.21;105533;1258;61448;-56
2023/07/01 02:23:27;;;;;;;8.40;6.60;;;;;;;19.32;62.69;99604.54;105193;1253;63830;-56
2023/07/01 02:25:53;;;;;;;9.50;7.00;;;;;;;19.29;62.60;99601.05;105120;1254;60942;-57
2023/07/01 02:28:20;;;;;;;9.10;6.70;;;;;;;19.27;62.71;99598.73;105456;1254;60446;-56
2023/07/01 02:30:47;;;;;;;9.60;6.60;;;;;;;19.30;62.65;99601.41;105411;1259;65120;-57
2023/07/01 02:33:14;;;;;;;9.30;6.20;;;;;;;19.36;62.52;99600.94;105050;1253;61544;-57
2023/07/01 02:35:41;;;;;;;11.10;6.70;;;;;;;19.44;62.48;99605.65;105627;1259;62696;-55
2023/07/01 02:38:08;;;;;;;8.20;6.50;;;;;;;19.48;62.36;99607.59;105353;1256;60665;-55
2023/07/01 02:40:35;;;;;;;10.40;6.70;;;;;;;19.49;62.00;99611.42;105403;1253;60483;-56
2023/07/01 02:43:02;;;;;;;8.80;6.70;;;;;;;19.46;61.60;99610.64;105594;1258;65195;-54
2023/07/01 02:45:29;;;;;;;10.00;6.90;;;;;;;19.41;61.68;99611.36;105427;1253;61701;-55
2023/07/01 02:47:56;;;;;;;10.20;6.30;;;;;;;19.37;61.65;99614.17;105177;1254;64062;-55
2023/07/01 02:50:23;;;;;;;7.60;6.20;;;;;;;19.38;61.69;99620.65;105270;1253;60476;-55
2023/07/01 02:52:49;;;;;;;9.60;6.60;;;;;;;19.40;61.64;99622.17;104987;1254;60547;-55
2023/07/01 02:55:17;;;;;;;10.30;7.00;;;;;;;19.43;61.54;99621.58;105425;1258;65244;-56
2023/07/01 02:57:43;;;;;;;10.50;7.20;;;;;;;19.44;61.59;99618.05;105220;1256;62521;-56
2023/07/01 03:00:11;;;;;;;8.80;6.30;;;;;;;19.45;61.64;99618.00;105390;1259;60455;-55
2023/07/01 03:02:38;;;;;;;9.30;6.60;;;;;;;19.45;61.57;99617.92;105264;1253;60351;-57
2023/07/01 03:05:07;;;;;;;8.40;6.30;;;;;;;19.45;61.69;99618.09;105217;1253;60553;-58
2023/07/01 03:07:35;;;;;;;10.90;7.00;;;;;;;19.47;61.58;99620.36;105284;1259;65478;-57
2023/07/01 03:10:02;;;;;;;8.00;6.20;;;;;;;19.52;61.55;99621.89;105456;1253;61793;-56
2023/07/01 03:12:29;;;;;;;7.20;5.80;;;;;;;19.57;61.74;99623.48;105399;1254;63696;-56
2023/07/01 03:14:56;;;;;;;8.00;6.80;;;;;;;19.63;61.74;99623.81;105396;1253;60553;-55
2023/07/01 03:17:24;;;;;;;9.30;6.80;;;;;;;19.66;61.74;99624.41;105584;1253;60470;-56
2023/07/01 03:19:52;;;;;;;8.00;6.80;;;;;;;19.70;61.79;99626.88;105645;1254;65487;-55
2023/07/01 03:22:18;;;;;;;11.60;6.90;;;;;;;19.70;61.76;99626.80;105250;1258;61897;-54
2023/07/01 03:24:45;;;;;;;8.10;6.40;;;;;;;19.69;61.83;99626.76;105309;1259;64044;-61
2023/07/01 03:27:13;;;;;;;9.20;6.70;;;;;;;19.71;61.85;99633.62;105637;1253;60519;-55
2023/07/01 03:29:39;;;;;;;9.20;6.40;;;;;;;19.76;61.69;99628.85;105288;1257;60696;-58
2023/07/01 03:32:08;;;;;;;8.20;5.80;;;;;;;19.89;61.43;99628.77;105420;1256;65024;-56
2023/07/01 03:34:35;;;;;;;8.20;6.30;;;;;;;20.02;61.26;99628.84;105759;1253;62997;-56
2023/07/01 03:37:02;;;;;;;9.90;6.90;;;;;;;20.12;61.07;99630.66;105288;1253;62615;-56
2023/07/01 03:39:29;;;;;;;11.70;7.30;;;;;;;20.15;60.93;99628.45;105218;1258;60548;-55
2023/07/01 03:41:55;;;;;;;9.10;6.50;;;;;;;20.19;60.91;99632.64;105383;1256;60435;-57
2023/07/01 03:44:22;;;;;;;7.20;6.00;;;;;;;20.22;60.51;99631.90;105444;1259;74265;-57
2023/07/01 03:46:51;;;;;;;7.80;6.30;;;;;;;20.23;60.73;99629.68;105457;1253;62033;-58
2023/07/01 03:49:18;;;;;;;8.00;6.10;;;;;;;20.27;60.62;99626.39;105415;1256;63713;-56
2023/07/01 03:51:45;;;;;;;7.40;5.90;;;;;;;20.34;60.41;99624.34;106783;1253;60486;-56
2023/07/01 03:54:11;;;;;;;7.40;5.90;;;;;;;20.43;60.30;99626.68;105665;1257;60450;-56
2023/07/01 03:56:39;;;;;;;9.00;6.40;;;;;;;20.52;60.32;99629.40;106019;1258;324791;-56
2023/07/01 04:11:45;;;;;;;7.90;5.60;;;;;;;20.82;59.45;99631.50;105759;1265;604830;-55
2023/07/01 04:14:14;;;;;;;8.10;5.90;;;;;;;21.39;57.81;99638.11;107065;1246;269543;-59
2023/07/01 04:16:43;;;;;;;8.90;6.20;;;;;;;21.38;57.90;99641.63;107603;1241;59332;-56
2023/07/01 04:19:11;;;;;;;7.80;6.10;;;;;;;21.35;57.83;99642.92;107632;1241;63334;-57
2023/07/01 04:21:37;;;;;;;7.90;6.30;;;;;;;21.35;57.83;99648.15;107559;1243;60054;-57
2023/07/01 04:24:07;;;;;;;7.70;6.10;;;;;;;21.35;57.68;99652.92;107679;1243;64284;-57
2023/07/01 04:26:35;;;;;;;11.30;6.50;;;;;;;21.35;57.97;99651.33;108242;1240;59209;-57
2023/07/01 04:29:02;;;;;;;10.30;6.70;;;;;;;21.36;57.96;99643.49;107537;1242;59361;-58
2023/07/01 04:31:30;;;;;;;7.60;5.50;;;;;;;21.39;57.76;99645.75;110924;1241;63320;-57
2023/07/01 04:33:56;;;;;;;8.20;5.90;;;;;;;21.41;57.38;99648.88;107674;1243;62112;-57
2023/07/01 04:36:23;;;;;;;8.80;6.30;;;;;;;21.43;57.44;99646.35;107775;1240;64482;-58
2023/07/01 04:38:50;;;;;;;9.00;6.10;;;;;;;21.46;57.09;99649.98;107832;1243;59722;-56
2023/07/01 04:41:16;;;;;;;11.80;6.80;;;;;;;21.50;57.09;99648.00;107525;1243;59609;-57
2023/07/01 04:43:43;;;;;;;8.30;6.30;;;;;;;21.57;57.31;99651.23;107435;1244;64128;-57
2023/07/01 04:46:10;;;;;;;8.30;6.10;;;;;;;21.63;57.25;99648.64;107737;1241;63174;-59
2023/07/01 04:48:37;;;;;;;8.00;6.70;;;;;;;21.64;57.23;99641.46;108427;1241;64539;-56
2023/07/01 04:51:04;;;;;;;7.80;6.00;;;;;;;21.67;57.20;99643.30;107603;1240;59565;-56
2023/07/01 04:53:30;;;;;;;8.30;6.60;;;;;;;21.74;57.01;99647.92;107603;1241;59648;-57
2023/07/01 04:56:02;;;;;;;8.20;6.30;;;;;;;21.79;56.86;99650.45;107504;1243;64695;-58
2023/07/01 04:58:29;;;;;;;8.80;6.30;;;;;;;21.86;56.75;99643.74;108045;1243;61371;-56
2023/07/01 05:00:55;;;;;;;9.00;5.60;;;;;;;21.95;56.39;99642.21;107761;1241;63941;-56
2023/07/01 05:03:22;;;;;;;9.60;6.10;;;;;;;22.02;56.35;99644.59;107956;1243;59636;-58
2023/07/01 05:05:49;;;;;;;7.60;6.10;;;;;;;22.08;56.31;99649.46;107782;1241;59609;-55
2023/07/01 05:08:15;;;;;;;7.00;5.60;;;;;;;22.16;56.48;99651.76;107658;1243;64681;-57
2023/07/01 05:10:42;;;;;;;7.50;5.70;;;;;;;22.23;56.32;99654.14;107831;1241;61604;-59
2023/07/01 05:13:10;;;;;;;10.50;6.40;;;;;;;22.29;56.24;99651.73;107578;1241;63954;-56
2023/07/01 05:15:37;;;;;;;8.70;6.00;;;;;;;22.38;56.11;99650.39;107397;1240;61074;-68
2023/07/01 05:18:04;;;;;;;6.50;5.10;;;;;;;22.48;55.83;99646.20;107476;1240;59655;-62
2023/07/01 05:20:32;;;;;;;9.40;5.80;;;;;;;22.60;54.78;99647.91;107566;1243;64344;-62
2023/07/01 05:22:58;;;;;;;7.00;5.50;;;;;;;22.71;54.53;99650.07;107513;1243;61365;-61
2023/07/01 05:25:25;;;;;;;7.60;5.50;;;;;;;22.81;54.53;99652.95;107256;1243;63700;-59
2023/07/01 05:27:52;;;;;;;10.10;6.30;;;;;;;22.89;54.55;99653.04;107333;1243;60425;-58
2023/07/01 05:30:18;;;;;;;9.10;6.00;;;;;;;22.96;54.37;99653.30;107666;1251;59602;-61
2023/07/01 05:32:45;;;;;;;8.10;6.10;;;;;;;23.03;54.24;99652.89;107499;1243;64310;-55
2023/07/01 05:35:12;;;;;;;8.00;6.30;;;;;;;23.10;54.14;99653.23;107209;1243;62078;-56
2023/07/01 05:37:39;;;;;;;8.50;6.60;;;;;;;23.17;53.99;99653.72;107573;1243;63717;-57
2023/07/01 05:40:06;;;;;;;7.90;5.50;;;;;;;23.25;54.01;99651.58;107650;1243;59608;-54
2023/07/01 05:42:33;;;;;;;7.00;5.40;;;;;;;23.37;53.75;99654.16;107433;1243;59538;-56
2023/07/01 05:45:00;;;;;;;7.60;4.50;;;;;;;23.49;53.30;99652.33;107399;1243;64306;-56
2023/07/01 05:47:26;;;;;;;7.20;5.40;;;;;;;23.60;53.14;99649.50;107807;1240;61535;-57
2023/07/01 05:49:56;;;;;;;10.90;5.70;;;;;;;23.70;52.73;99651.27;107735;1240;64255;-67
2023/07/01 05:52:23;;;;;;;7.80;5.20;;;;;;;23.78;52.39;99652.08;110834;1236;59668;-67
2023/07/01 05:54:52;;;;;;;10.20;5.80;;;;;;;23.85;51.93;99655.67;111827;1239;57257;-67
2023/07/01 05:57:19;;;;;;;8.60;5.40;;;;;;;23.91;51.87;99652.41;110657;1239;64135;-63
2023/07/01 05:59:47;;;;;;;7.00;5.00;;;;;;;23.99;51.56;99654.54;108308;1239;61839;-72
2023/07/01 06:02:14;;;;;;;12.10;6.20;;;;;;;24.04;51.12;99650.33;107984;1240;63794;-63
2023/07/01 06:04:41;;;;;;;8.50;5.30;;;;;;;24.10;51.28;99648.48;108077;1235;59537;-60
2023/07/01 06:07:08;;;;;;;8.10;5.80;;;;;;;24.14;51.36;99648.32;107962;1239;59734;-63
2023/07/01 06:09:34;;;;;;;7.60;5.90;;;;;;;24.18;50.86;99647.71;107819;1238;59627;-60
2023/07/01 06:12:01;;;;;;;8.80;5.50;;;;;;;24.20;50.76;99647.40;107683;1236;61573;-56
2023/07/01 06:14:28;;;;;;;8.30;5.90;;;;;;;24.23;50.83;99645.54;107792;1239;63726;-61
2023/07/01 06:16:54;;;;;;;6.70;5.40;;;;;;;24.28;51.78;99647.36;107888;1238;59616;-57
2023/07/01 06:19:21;;;;;;;7.00;5.20;;;;;;;24.34;52.45;99648.97;107823;1236;59588;-58
2023/07/01 06:21:51;;;;;;;9.70;5.70;;;;;;;24.41;52.44;99651.71;108652;1239;64152;-56
2023/07/01 06:24:18;;;;;;;7.40;5.50;;;;;;;24.47;52.28;99653.95;107844;1238;61588;-59
2023/07/01 06:26:45;;;;;;;7.70;5.90;;;;;;;24.51;51.88;99651.85;108993;1239;63784;-55
2023/07/01 06:29:11;;;;;;;6.90;5.60;;;;;;;24.55;51.50;99653.40;107752;1235;59822;-56
2023/07/01 06:31:38;;;;;;;6.20;5.00;;;;;;;24.58;51.92;99651.99;108025;1236;59649;-57
2023/07/01 06:34:11;;;;;;;7.70;5.60;;;;;;;24.62;52.00;99649.73;108414;1239;64155;-57
2023/07/01 06:36:38;;;;;;;7.00;5.70;;;;;;;24.67;52.12;99647.98;107777;1238;61535;-55
2023/07/01 06:39:05;;;;;;;7.10;5.80;;;;;;;24.72;51.95;99653.91;108054;1239;63730;-56
2023/07/01 06:41:33;;;;;;;7.90;5.60;;;;;;;24.75;51.59;99651.21;108060;1239;59587;-55
2023/07/01 06:44:00;;;;;;;6.90;4.70;;;;;;;24.80;50.55;99647.23;108160;1235;59729;-57
2023/07/01 06:46:27;;;;;;;6.90;5.30;;;;;;;24.86;49.29;99646.17;109285;1239;64002;-56
2023/07/01 06:48:54;;;;;;;8.20;5.90;;;;;;;24.93;49.28;99641.44;107941;1240;70715;-57
2023/07/01 06:51:21;;;;;;;7.70;4.80;;;;;;;25.01;49.20;99640.42;108017;1236;59641;-56
2023/07/01 06:53:48;;;;;;;8.30;5.20;;;;;;;25.09;48.66;99643.83;107986;1237;59639;-57
2023/07/01 06:56:14;;;;;;;8.10;4.80;;;;;;;25.18;47.95;99645.90;108189;1237;59745;-55
2023/07/01 06:58:41;;;;;;;7.00;5.20;;;;;;;25.25;47.84;99643.95;108016;1237;64246;-55
2023/07/01 07:01:11;;;;;;;8.10;4.50;;;;;;;25.34;47.10;99650.34;107947;1236;61426;-56
2023/07/01 07:03:40;;;;;;;9.50;4.50;;;;;;;25.39;46.24;99651.48;108035;1239;63885;-56
2023/07/01 07:06:07;;;;;;;7.00;4.10;;;;;;;25.42;45.99;99656.17;108101;1241;60296;-59
2023/07/01 07:08:35;;;;;;;6.50;4.50;;;;;;;25.45;45.46;99653.48;108308;1237;59629;-59
2023/07/01 07:11:02;;;;;;;7.50;4.50;;;;;;;25.49;44.36;99652.37;107757;1240;64009;-58
2023/07/01 07:13:29;;;;;;;5.40;3.90;;;;;;;25.53;43.98;99654.23;107908;1240;61649;-56
2023/07/01 07:15:56;;;;;;;5.50;4.00;;;;;;;25.57;43.92;99648.86;107847;1239;63569;-60
2023/07/01 07:18:22;;;;;;;5.60;4.30;;;;;;;25.61;44.22;99650.03;107968;1240;59649;-63
2023/07/01 07:20:49;;;;;;;7.70;3.90;;;;;;;25.66;44.17;99650.34;107910;1237;59732;-55
2023/07/01 07:23:16;;;;;;;5.70;3.70;;;;;;;25.72;43.59;99643.98;107733;1239;64290;-56
2023/07/01 07:25:43;;;;;;;5.40;3.70;;;;;;;25.82;43.46;99641.14;107807;1239;61361;-57
2023/07/01 07:28:10;;;;;;;6.20;3.50;;;;;;;25.90;42.80;99640.00;107862;1240;63922;-59
2023/07/01 07:30:38;;;;;;;6.40;3.90;;;;;;;25.97;42.07;99643.31;107930;1237;59619;-56
2023/07/01 07:33:05;;;;;;;6.30;4.20;;;;;;;26.02;42.16;99647.56;107933;1240;59748;-58
2023/07/01 07:35:32;;;;;;;5.80;3.50;;;;;;;26.06;42.23;99651.73;107961;1240;64242;-60
2023/07/01 07:37:59;;;;;;;6.10;4.10;;;;;;;26.10;41.58;99644.48;108086;1239;61930;-56
2023/07/01 07:40:26;;;;;;;8.80;4.10;;;;;;;26.13;41.85;99647.16;111766;1237;63935;-56
2023/07/01 07:42:59;;;;;;;6.60;4.30;;;;;;;26.19;42.27;99644.09;109818;1239;59754;-57
2023/07/01 07:45:26;;;;;;;6.90;5.00;;;;;;;26.29;42.14;99645.98;107041;1241;61366;-55
2023/07/01 07:47:52;;;;;;;6.10;4.40;;;;;;;26.38;41.46;99641.76;107944;1240;64062;-59
2023/07/01 07:50:21;;;;;;;6.10;4.00;;;;;;;26.44;40.91;99639.48;108500;1238;61792;-59
2023/07/01 07:52:50;;;;;;;5.70;3.60;;;;;;;26.51;40.82;99643.90;108016;1235;63892;-56
2023/07/01 07:55:17;;;;;;;6.70;3.40;;;;;;;26.58;40.46;99646.76;107801;1240;59629;-58
2023/07/01 07:57:44;;;;;;;6.70;3.80;;;;;;;26.65;40.11;99646.18;107907;1238;59726;-57
2023/07/01 08:00:12;;;;;;;7.60;3.40;;;;;;;26.71;39.98;99640.95;107791;1239;64293;-57
2023/07/01 08:02:44;;;;;;;5.80;3.50;;;;;;;26.78;39.99;99638.89;107962;1241;60434;-58
2023/07/01 08:05:17;;;;;;;5.70;3.50;;;;;;;26.81;39.28;99635.90;108126;1239;63878;-58
2023/07/01 08:07:46;;;;;;;7.50;4.70;;;;;;;26.78;39.54;99641.31;107952;1239;59601;-58
2023/07/01 08:10:13;;;;;;;5.60;3.40;;;;;;;26.78;39.98;99644.43;107968;1239;59690;-62
2023/07/01 08:12:40;;;;;;;8.90;3.80;;;;;;;26.82;39.49;99634.62;108005;1239;64694;-58
2023/07/01 08:15:11;;;;;;;4.80;3.10;;;;;;;26.87;38.86;99632.20;107872;1235;61602;-59
2023/07/01 08:17:38;;;;;;;5.80;3.70;;;;;;;26.91;38.59;99633.77;108018;1239;63976;-55
2023/07/01 08:20:06;;;;;;;4.90;3.30;;;;;;;26.95;39.04;99638.67;107886;1235;60505;-57
2023/07/01 08:22:33;;;;;;;6.30;3.20;;;;;;;27.00;39.13;99638.54;107895;1240;60438;-57
2023/07/01 08:25:00;;;;;;;5.00;3.40;;;;;;;27.05;38.84;99634.98;107875;1239;64967;-61
2023/07/01 08:27:27;;;;;;;5.90;3.40;;;;;;;27.12;39.21;99634.21;108032;1240;61546;-59
2023/07/01 08:29:53;;;;;;;7.70;4.20;;;;;;;27.21;39.32;99640.11;108131;1239;63743;-57
2023/07/01 08:32:20;;;;;;;6.50;3.80;;;;;;;27.35;39.29;99637.60;107857;1241;61617;-56
2023/07/01 08:34:47;;;;;;;6.70;3.90;;;;;;;27.46;39.01;99635.52;107934;1241;60437;-60
2023/07/01 08:37:14;;;;;;;5.60;3.90;;;;;;;27.54;38.61;99635.39;108398;1240;60425;-59
2023/07/01 08:39:40;;;;;;;6.30;3.90;;;;;;;27.60;38.17;99634.54;107966;1239;70602;-60
2023/07/01 08:42:09;;;;;;;6.70;3.80;;;;;;;27.67;37.76;99640.28;107943;1239;62557;-57
2023/07/01 08:44:38;;;;;;;6.00;3.20;;;;;;;27.69;37.34;99635.82;108143;1236;60543;-57
2023/07/01 08:47:06;;;;;;;6.70;3.40;;;;;;;27.66;37.69;99640.73;108854;1237;60480;-57
2023/07/01 08:49:34;;;;;;;4.90;3.20;;;;;;;27.59;37.69;99642.96;109076;1232;65226;-57
2023/07/01 08:52:05;;;;;;;5.60;3.00;;;;;;;27.54;37.29;99644.03;112145;1236;61821;-60
2023/07/01 08:54:58;;;;;;;4.90;3.00;;;;;;;27.52;37.00;99643.05;111252;1235;62592;-56
2023/07/01 08:57:25;;;;;;;5.80;3.50;;;;;;;27.56;36.92;99645.25;108408;1235;60415;-58
2023/07/01 08:59:51;;;;;;;7.50;3.50;;;;;;;27.64;37.10;99642.46;108438;1231;60590;-55
2023/07/01 09:02:18;;;;;;;5.90;3.20;;;;;;;27.71;37.18;99645.09;108062;1238;65600;-57
2023/07/01 09:04:45;;;;;;;5.80;3.60;;;;;;;27.76;37.11;99637.57;108299;1236;61214;-58
2023/07/01 09:07:12;;;;;;;6.50;3.20;;;;;;;27.80;36.92;99635.61;109999;1232;63950;-56
2023/07/01 09:09:39;;;;;;;8.40;3.30;;;;;;;27.86;37.22;99633.89;108790;1237;60435;-56
2023/07/01 09:12:06;;;;;;;6.00;2.80;;;;;;;27.95;36.87;99630.66;108555;1237;60538;-60
2023/07/01 09:14:58;;;;;;;6.40;3.20;;;;;;;28.05;36.35;99628.36;108295;1236;64919;-61
2023/07/01 09:17:30;;;;;;;4.80;3.00;;;;;;;28.14;36.22;99627.95;108628;1236;61737;-58
2023/07/01 09:20:04;;;;;;;5.50;3.20;;;;;;;28.22;36.14;99636.23;108473;1231;64413;-57
2023/07/01 09:22:32;;;;;;;5.40;3.30;;;;;;;28.27;35.86;99633.46;108484;1234;60512;-61
2023/07/01 09:24:59;;;;;;;5.70;3.10;;;;;;;28.30;35.56;99625.97;108609;1234;60489;-64
2023/07/01 09:27:46;;;;;;;5.70;3.00;;;;;;;28.32;35.60;99619.17;108338;1231;64790;-55
2023/07/01 09:30:31;;;;;;;5.30;2.70;;;;;;;28.36;35.67;99618.00;111267;1231;61607;-61
2023/07/01 09:33:12;;;;;;;5.50;2.80;;;;;;;28.42;35.30;99618.92;109932;1237;63704;-60
2023/07/01 09:35:45;;;;;;;6.00;3.10;;;;;;;28.45;35.05;99619.43;108301;1232;60429;-57
2023/07/01 09:38:14;;;;;;;7.20;2.70;;;;;;;28.47;35.03;99609.21;108446;1234;61564;-59
2023/07/01 09:40:41;;;;;;;6.30;3.30;;;;;;;28.48;34.84;99609.00;108948;1239;65014;-58
2023/07/01 09:43:08;;;;;;;6.10;2.90;;;;;;;28.50;34.89;99611.67;109385;1241;61450;-57
2023/07/01 09:45:34;;;;;;;6.60;2.70;;;;;;;28.53;34.09;99606.01;108317;1238;63805;-62
2023/07/01 09:48:09;;;;;;;4.70;2.50;;;;;;;28.63;34.44;99605.71;108240;1237;61162;-58
2023/07/01 09:50:36;;;;;;;5.40;2.90;;;;;;;28.75;34.51;99601.40;108993;1231;60471;-60
2023/07/01 09:53:03;;;;;;;6.00;3.00;;;;;;;28.87;34.57;99603.64;108004;1238;63507;-60
2023/07/01 09:55:30;;;;;;;6.10;3.40;;;;;;;28.94;34.50;99604.10;108521;1236;60448;-61
2023/07/01 09:58:39;;;;;;;5.80;2.40;;;;;;;28.96;33.87;99607.69;107994;1237;63933;-60
2023/07/01 10:01:06;;;;;;;4.80;2.50;;;;;;;28.93;33.51;99601.39;108270;1236;60430;-62
2023/07/01 10:03:35;;;;;;;6.80;2.30;;;;;;;28.97;33.89;99604.39;108364;1237;60502;-61
2023/07/01 10:06:02;;;;;;;5.20;2.90;;;;;;;29.01;33.56;99604.56;108506;1232;65168;-59
2023/07/01 10:08:29;;;;;;;5.80;2.70;;;;;;;28.99;33.88;99599.25;109566;1237;61473;-58
2023/07/01 10:11:15;;;;;;;6.30;2.90;;;;;;;28.94;34.27;99595.21;108247;1239;62695;-63
2023/07/01 10:13:50;;;;;;;4.70;2.80;;;;;;;28.91;34.29;99599.76;108361;1232;60430;-58
2023/07/01 10:16:16;;;;;;;5.40;2.80;;;;;;;28.95;34.30;99596.53;108284;1232;60534;-59
2023/07/01 10:18:43;;;;;;;5.20;2.40;;;;;;;29.01;34.16;99601.70;108220;1237;65633;-60
2023/07/01 10:21:29;;;;;;;6.60;3.20;;;;;;;29.05;33.49;99592.60;108295;1232;61444;-68
2023/07/01 10:23:59;;;;;;;4.80;2.60;;;;;;;29.04;33.41;99592.52;108631;1237;63836;-57
2023/07/01 10:26:36;;;;;;;4.90;2.70;;;;;;;29.01;33.24;99584.54;108536;1237;60393;-58
2023/07/01 10:29:47;;;;;;;6.90;3.00;;;;;;;29.00;33.54;99581.88;108318;1232;60416;-58
2023/07/01 10:32:13;;;;;;;5.60;2.80;;;;;;;29.01;33.60;99593.52;108511;1238;65088;-61
2023/07/01 10:34:55;;;;;;;5.00;2.60;;;;;;;29.00;32.97;99588.10;108293;1236;61448;-58
2023/07/01 10:37:22;;;;;;;6.70;3.30;;;;;;;29.00;32.78;99584.30;109000;1236;64507;-59
2023/07/01 10:39:49;;;;;;;5.60;2.90;;;;;;;29.06;33.09;99577.61;108454;1237;60478;-56
2023/07/01 10:42:33;;;;;;;6.50;2.70;;;;;;;29.18;32.62;99582.00;108450;1231;60503;-56
2023/07/01 10:45:12;;;;;;;4.10;2.50;;;;;;;29.31;32.11;99574.97;108470;1237;65122;-56
2023/07/01 10:48:03;;;;;;;7.50;2.40;;;;;;;29.40;31.79;99577.22;108314;1232;61349;-58
2023/07/01 10:50:30;;;;;;;4.30;2.20;;;;;;;29.49;30.28;99584.98;108541;1237;62770;-59
2023/07/01 10:52:57;;;;;;;4.70;2.50;;;;;;;29.54;30.39;99588.46;108629;1232;60416;-60
2023/07/01 10:55:38;;;;;;;5.90;2.70;;;;;;;29.52;31.51;99584.23;108359;1232;60423;-58
2023/07/01 10:58:21;;;;;;;5.30;2.90;;;;;;;29.50;32.06;99580.49;108761;1232;63744;-56
2023/07/01 11:00:53;;;;;;;6.30;3.10;;;;;;;29.52;32.02;99578.27;109122;1237;61260;-58
2023/07/01 11:03:35;;;;;;;6.10;2.70;;;;;;;29.58;31.74;99571.30;108033;1237;62492;-56
2023/07/01 11:06:03;;;;;;;4.80;2.90;;;;;;;29.62;31.43;99580.73;108126;1232;60497;-59
2023/07/01 11:08:33;;;;;;;4.80;2.40;;;;;;;29.60;31.40;99576.54;111638;1232;59334;-60
2023/07/01 11:10:59;;;;;;;5.40;2.50;;;;;;;29.55;31.53;99573.77;109178;1232;64923;-58
2023/07/01 11:13:26;;;;;;;5.00;2.60;;;;;;;29.53;31.11;99575.88;108153;1232;62009;-56
2023/07/01 11:16:09;;;;;;;5.00;2.80;;;;;;;29.50;31.33;99572.63;108724;1236;63922;-58
2023/07/01 11:18:47;;;;;;;4.40;2.40;;;;;;;29.48;31.60;99571.54;108533;1236;60551;-61
2023/07/01 11:21:21;;;;;;;4.60;2.70;;;;;;;29.48;32.39;99570.78;108417;1237;60549;-58
2023/07/01 11:23:52;;;;;;;4.50;2.60;;;;;;;29.52;32.05;99570.63;108551;1236;65563;-57
2023/07/01 11:26:29;;;;;;;6.80;2.80;;;;;;;29.56;31.65;99565.86;108821;1236;61388;-59
2023/07/01 11:28:56;;;;;;;7.70;3.10;;;;;;;29.62;31.88;99562.62;108354;1237;63735;-58
2023/07/01 11:31:25;;;;;;;5.90;3.00;;;;;;;29.70;32.02;99565.51;109224;1232;60379;-57
2023/07/01 11:33:53;;;;;;;5.70;2.90;;;;;;;29.74;31.98;99563.08;109780;1232;60380;-58
2023/07/01 11:36:36;;;;;;;4.60;2.80;;;;;;;29.83;32.57;99557.52;108529;1236;64904;-56
2023/07/01 11:39:10;;;;;;;6.70;3.30;;;;;;;29.99;32.65;99561.20;108481;1244;60435;-57
2023/07/01 11:41:40;;;;;;;5.20;2.80;;;;;;;30.04;32.42;99555.95;108278;1237;63801;-57
2023/07/01 11:44:12;;;;;;;4.80;2.70;;;;;;;29.99;32.12;99554.48;108385;1235;60443;-55
2023/07/01 11:46:40;;;;;;;6.30;3.30;;;;;;;29.85;32.02;99552.31;108411;1232;60514;-55